createdAt,value
2022-10-18T00:01:06.823Z,36.25
2022-10-18T00:03:44.420Z,42.80
2022-10-18T00:06:12.488Z,43.08
2022-10-18T00:08:40.694Z,39.15
2022-10-18T00:11:08.997Z,38.10
2022-10-18T00:13:37.744Z,37.05
2022-10-18T00:16:10.848Z,39.95
2022-10-18T00:18:38.879Z,38.80
2022-10-18T00:21:17.669Z,41.70
2022-10-18T00:23:46.777Z,36.03
2022-10-18T00:26:17.665Z,38.22
2022-10-18T00:28:46.920Z,42.20
2022-10-18T00:31:17.510Z,37.05
2022-10-18T00:33:47.360Z,40.95
2022-10-18T00:36:15.707Z,39.42
2022-10-18T00:38:44.500Z,38.30
2022-10-18T00:41:16.069Z,38.38
2022-10-18T00:43:58.018Z,42.08
2022-10-18T00:46:31.086Z,37.85
2022-10-18T00:49:02.541Z,38.83
2022-10-18T00:51:39.959Z,41.25
2022-10-18T00:54:07.942Z,36.13
2022-10-18T00:56:36.069Z,39.83
2022-10-18T00:59:04.351Z,38.03
2022-10-18T01:01:31.992Z,38.72
2022-10-18T01:03:59.929Z,35.95
2022-10-18T01:06:29.345Z,36.17
2022-10-18T01:09:18.357Z,36.63
2022-10-18T01:12:12.552Z,41.42
2022-10-18T01:14:52.306Z,40.20
2022-10-18T01:17:28.922Z,37.10
2022-10-18T01:20:12.795Z,37.45
2022-10-18T01:23:04.523Z,35.53
2022-10-18T01:25:46.063Z,38.67
2022-10-18T01:28:28.267Z,32.55
2022-10-18T01:31:06.109Z,31.35
2022-10-18T01:33:51.162Z,36.40
2022-10-18T01:36:28.535Z,38.50
2022-10-18T01:39:01.354Z,30.90
2022-10-18T01:41:30.161Z,38.67
2022-10-18T01:44:02.118Z,32.47
2022-10-18T01:46:30.999Z,36.28
2022-10-18T01:48:59.593Z,31.55
2022-10-18T01:51:29.672Z,31.75
2022-10-18T01:53:57.878Z,33.28
2022-10-18T01:56:31.421Z,33.60
2022-10-18T01:59:19.990Z,35.38
2022-10-18T02:02:35.213Z,32.47
2022-10-18T02:08:32.922Z,36.33
2022-10-18T02:11:02.771Z,28.20
2022-10-18T02:13:45.407Z,34.90
2022-10-18T02:16:19.672Z,32.25
2022-10-18T02:21:25.959Z,31.38
2022-10-18T02:23:55.154Z,31.00
2022-10-18T02:26:23.289Z,34.38
2022-10-18T02:28:51.317Z,34.10
2022-10-18T02:31:29.927Z,32.05
2022-10-18T02:34:20.468Z,33.22
2022-10-18T02:36:57.423Z,33.13
2022-10-18T02:39:31.414Z,33.00
2022-10-18T02:41:59.773Z,31.90
2022-10-18T02:44:27.668Z,33.85
2022-10-18T02:46:55.522Z,30.38
2022-10-18T02:49:23.253Z,29.92
2022-10-18T02:51:51.082Z,35.83
2022-10-18T02:54:18.654Z,32.80
2022-10-18T02:56:46.382Z,31.42
2022-10-18T02:59:13.982Z,31.33
2022-10-18T03:01:41.769Z,32.53
2022-10-18T03:04:09.521Z,31.30
2022-10-18T03:06:37.399Z,32.15
2022-10-18T03:09:06.489Z,28.77
2022-10-18T03:11:34.453Z,28.08
2022-10-18T03:14:02.062Z,27.88
2022-10-18T03:16:30.057Z,34.63
2022-10-18T03:18:57.631Z,28.58
2022-10-18T03:21:25.405Z,29.30
2022-10-18T03:23:53.021Z,28.30
2022-10-18T03:26:21.628Z,29.50
2022-10-18T03:28:49.295Z,32.95
2022-10-18T03:31:17.509Z,28.73
2022-10-18T03:33:45.260Z,30.20
2022-10-18T03:36:13.351Z,28.33
2022-10-18T03:38:40.943Z,25.60
2022-10-18T03:41:09.020Z,26.45
2022-10-18T03:43:36.690Z,32.45
2022-10-18T03:46:04.735Z,29.35
2022-10-18T03:48:32.607Z,33.45
2022-10-18T03:51:00.363Z,28.15
2022-10-18T03:53:27.910Z,27.55
2022-10-18T03:55:56.997Z,27.35
2022-10-18T03:58:24.893Z,30.45
2022-10-18T04:00:54.366Z,30.63
2022-10-18T04:03:23.417Z,29.38
2022-10-18T04:05:51.635Z,29.05
2022-10-18T04:08:19.754Z,30.80
2022-10-18T04:10:47.737Z,29.42
2022-10-18T04:13:15.695Z,24.80
2022-10-18T04:15:44.049Z,24.45
2022-10-18T04:18:11.674Z,22.88
2022-10-18T04:20:39.531Z,24.52
2022-10-18T04:23:07.064Z,25.55
2022-10-18T04:25:34.929Z,23.75
2022-10-18T04:28:04.688Z,27.77
2022-10-18T04:30:32.516Z,23.50
2022-10-18T04:33:00.202Z,26.23
2022-10-18T04:35:28.443Z,26.25
2022-10-18T04:37:56.114Z,25.45
2022-10-18T04:40:23.856Z,25.85
2022-10-18T04:42:51.375Z,27.17
2022-10-18T04:45:19.129Z,25.42
2022-10-18T04:47:46.698Z,27.02
2022-10-18T04:50:14.411Z,27.38
2022-10-18T04:52:42.614Z,28.45
2022-10-18T04:55:10.547Z,28.13
2022-10-18T04:57:38.156Z,28.27
2022-10-18T05:00:06.603Z,26.25
2022-10-18T05:02:34.444Z,23.83
2022-10-18T05:05:02.481Z,24.15
2022-10-18T05:07:30.446Z,25.67
2022-10-18T05:09:58.302Z,27.25
2022-10-18T05:12:25.838Z,24.33
2022-10-18T05:14:56.264Z,23.67
2022-10-18T05:17:23.953Z,24.38
2022-10-18T05:19:51.782Z,27.33
2022-10-18T05:22:19.407Z,28.25
2022-10-18T05:24:47.236Z,26.17
2022-10-18T05:27:14.852Z,30.30
2022-10-18T05:29:42.699Z,26.02
2022-10-18T05:32:10.242Z,24.75
2022-10-18T05:34:38.091Z,24.27
2022-10-18T05:37:06.704Z,25.35
2022-10-18T05:39:34.521Z,23.05
2022-10-18T05:42:02.504Z,24.00
2022-10-18T05:44:30.396Z,24.58
2022-10-18T05:46:58.129Z,26.40
2022-10-18T05:49:25.962Z,24.30
2022-10-18T05:51:53.632Z,35.72
2022-10-18T05:54:21.537Z,28.00
2022-10-18T05:56:49.346Z,32.08
2022-10-18T05:59:17.142Z,25.60
2022-10-18T06:01:45.544Z,26.52
2022-10-18T06:04:13.394Z,25.73
2022-10-18T06:06:40.968Z,33.33
2022-10-18T06:09:08.984Z,23.05
2022-10-18T06:11:37.384Z,31.00
2022-10-18T06:14:05.638Z,28.77
2022-10-18T06:16:33.418Z,26.60
2022-10-18T06:19:01.298Z,20.60
2022-10-18T06:21:28.962Z,19.85
2022-10-18T06:23:58.923Z,20.42
2022-10-18T06:26:27.846Z,20.52
2022-10-18T06:28:55.813Z,20.70
2022-10-18T06:31:23.550Z,18.83
2022-10-18T06:33:51.429Z,17.35
2022-10-18T06:36:22.264Z,20.05
2022-10-18T06:38:50.818Z,21.30
2022-10-18T06:41:19.350Z,18.58
2022-10-18T06:43:51.273Z,15.73
2022-10-18T06:46:19.223Z,18.17
2022-10-18T06:48:47.308Z,19.55
2022-10-18T06:51:15.408Z,18.73
2022-10-18T06:53:53.442Z,18.65
2022-10-18T06:56:31.034Z,15.38
2022-10-18T07:01:32.484Z,17.33
2022-10-18T07:04:00.396Z,16.92
2022-10-18T07:06:28.179Z,18.67
2022-10-18T07:08:57.059Z,17.90
2022-10-18T07:11:26.842Z,23.83
2022-10-18T07:14:00.864Z,16.00
2022-10-18T07:16:29.045Z,18.65
2022-10-18T07:18:57.018Z,15.55
2022-10-18T07:21:26.174Z,19.15
2022-10-18T07:23:56.224Z,16.20
2022-10-18T07:26:29.678Z,16.55
2022-10-18T07:29:01.608Z,13.30
2022-10-18T07:31:30.149Z,14.88
2022-10-18T07:33:58.210Z,17.13
2022-10-18T07:36:26.257Z,16.17
2022-10-18T07:38:54.266Z,16.23
2022-10-18T07:41:22.458Z,17.17
2022-10-18T07:43:52.004Z,18.48
2022-10-18T07:46:21.880Z,17.55
2022-10-18T07:48:50.354Z,20.02
2022-10-18T07:51:19.946Z,17.10
2022-10-18T07:53:48.088Z,18.45
2022-10-18T07:56:21.032Z,20.45
2022-10-18T07:58:54.457Z,19.77
2022-10-18T08:01:24.648Z,21.02
2022-10-18T08:03:53.330Z,19.35
2022-10-18T08:06:22.879Z,20.60
2022-10-18T08:08:52.201Z,17.25
2022-10-18T08:11:25.141Z,17.02
2022-10-18T08:13:54.335Z,18.67
2022-10-18T08:16:24.931Z,18.63
2022-10-18T08:18:53.268Z,14.98
2022-10-18T08:21:21.791Z,15.15
2022-10-18T08:23:50.160Z,23.27
2022-10-18T08:26:20.951Z,18.35
2022-10-18T08:28:54.376Z,19.75
2022-10-18T08:31:31.546Z,17.67
2022-10-18T08:34:00.035Z,18.05
2022-10-18T08:36:27.760Z,19.55
2022-10-18T08:38:55.502Z,19.38
2022-10-18T08:41:38.487Z,20.05
2022-10-18T08:44:33.827Z,17.10
2022-10-18T08:47:05.637Z,21.60
2022-10-18T08:49:47.078Z,21.20
2022-10-18T08:52:53.631Z,17.25
2022-10-18T08:55:42.165Z,17.73
2022-10-18T08:58:23.355Z,17.38
2022-10-18T09:01:07.280Z,18.67
2022-10-18T09:04:05.917Z,17.88
2022-10-18T09:06:47.867Z,18.15
2022-10-18T09:09:18.497Z,17.25
2022-10-18T09:12:17.089Z,19.33
2022-10-18T09:15:13.856Z,16.30
2022-10-18T09:17:54.927Z,20.08
2022-10-18T09:20:27.685Z,21.25
2022-10-18T09:23:12.281Z,21.65
2022-10-18T09:25:56.176Z,25.20
2022-10-18T09:28:36.652Z,17.17
2022-10-18T09:31:16.740Z,19.48
2022-10-18T09:34:08.367Z,20.67
2022-10-18T09:36:38.664Z,18.10
2022-10-18T09:39:12.188Z,17.70
2022-10-18T09:42:19.393Z,20.45
2022-10-18T09:45:02.071Z,20.38
2022-10-18T09:47:46.082Z,23.20
2022-10-18T09:50:40.207Z,18.42
2022-10-18T09:53:15.950Z,18.27
2022-10-18T09:56:12.035Z,21.67
2022-10-18T09:58:46.469Z,23.00
2022-10-18T10:01:19.575Z,24.75
2022-10-18T10:03:47.281Z,22.00
2022-10-18T10:06:17.102Z,22.65
2022-10-18T10:08:50.115Z,20.23
2022-10-18T10:11:34.779Z,25.03
2022-10-18T10:14:30.284Z,23.30
2022-10-18T10:17:05.836Z,23.15
2022-10-18T10:19:37.726Z,24.75
2022-10-18T10:22:12.440Z,21.10
2022-10-18T10:24:55.346Z,23.08
2022-10-18T10:27:34.623Z,29.10
2022-10-18T10:30:07.027Z,26.45
2022-10-18T10:32:49.974Z,23.95
2022-10-18T10:35:54.368Z,27.85
2022-10-18T10:38:28.146Z,21.27
2022-10-18T10:40:56.798Z,21.92
2022-10-18T10:43:38.617Z,22.55
2022-10-18T10:46:09.477Z,25.90
2022-10-18T10:48:46.021Z,24.30
2022-10-18T10:51:16.329Z,25.92
2022-10-18T10:53:50.856Z,27.60
2022-10-18T10:56:30.591Z,27.15
2022-10-18T10:59:17.984Z,25.25
2022-10-18T11:01:49.730Z,24.58
2022-10-18T11:04:44.435Z,25.35
2022-10-18T11:07:33.706Z,26.63
2022-10-18T11:10:12.482Z,25.10
2022-10-18T11:12:46.330Z,25.10
2022-10-18T11:15:35.895Z,25.25
2022-10-18T11:18:22.155Z,22.40
2022-10-18T11:20:58.357Z,25.13
2022-10-18T11:23:32.407Z,25.83
2022-10-18T11:26:11.353Z,25.23
2022-10-18T11:29:08.888Z,26.88
2022-10-18T11:32:01.830Z,25.10
2022-10-18T11:34:47.434Z,25.95
2022-10-18T11:37:39.702Z,26.30
2022-10-18T11:40:32.288Z,25.48
2022-10-18T11:43:18.977Z,27.92
2022-10-18T11:46:04.647Z,23.48
2022-10-18T11:48:44.416Z,22.35
2022-10-18T11:51:38.700Z,24.58
2022-10-18T11:54:26.487Z,24.08
2022-10-18T11:57:12.300Z,23.90
2022-10-18T12:00:10.118Z,27.58
2022-10-18T12:03:00.657Z,24.88
2022-10-18T12:05:30.935Z,26.83
2022-10-18T12:08:20.127Z,26.45
2022-10-18T12:11:05.532Z,26.25
2022-10-18T12:13:57.786Z,27.27
2022-10-18T12:16:49.904Z,28.00
2022-10-18T12:19:27.041Z,27.83
2022-10-18T12:22:05.859Z,31.08
2022-10-18T12:24:35.579Z,32.65
2022-10-18T12:27:03.823Z,26.67
2022-10-18T12:29:47.972Z,24.85
2022-10-18T12:32:29.877Z,25.00
2022-10-18T12:35:18.204Z,22.98
2022-10-18T12:37:53.295Z,24.13
2022-10-18T12:40:26.094Z,28.40
2022-10-18T12:42:54.448Z,22.90
2022-10-18T12:45:27.753Z,25.52
2022-10-18T12:48:00.512Z,24.52
2022-10-18T12:50:35.910Z,27.60
2022-10-18T12:53:12.850Z,30.08
2022-10-18T12:58:22.317Z,23.75
2022-10-18T13:00:49.935Z,26.98
2022-10-18T13:03:18.063Z,31.60
2022-10-18T13:05:54.299Z,28.13
2022-10-18T13:08:35.237Z,24.08
2022-10-18T13:11:11.879Z,25.92
2022-10-18T13:14:00.236Z,29.27
2022-10-18T13:16:42.913Z,28.50
2022-10-18T13:19:23.729Z,32.42
2022-10-18T13:21:56.830Z,33.08
2022-10-18T13:24:30.459Z,30.95
2022-10-18T13:27:24.068Z,28.83
2022-10-18T13:30:03.058Z,27.15
2022-10-18T13:33:03.364Z,27.20
2022-10-18T13:35:48.216Z,32.75
2022-10-18T13:38:39.239Z,26.58
2022-10-18T13:41:11.056Z,28.90
2022-10-18T13:43:56.719Z,28.70
2022-10-18T13:46:44.502Z,31.95
2022-10-18T13:49:17.646Z,29.83
2022-10-18T13:52:13.446Z,30.02
2022-10-18T13:54:49.930Z,28.05
2022-10-18T13:57:29.710Z,33.38
2022-10-18T14:00:15.308Z,34.30
2022-10-18T14:03:51.431Z,39.67
2022-10-18T14:06:22.669Z,55.15
2022-10-18T14:08:57.703Z,32.75
2022-10-18T14:11:46.035Z,36.55
2022-10-18T14:14:26.742Z,33.83
2022-10-18T14:17:15.429Z,30.30
2022-10-18T14:19:52.254Z,28.92
2022-10-18T14:22:22.794Z,32.20
2022-10-18T14:24:58.695Z,39.05
2022-10-18T14:27:33.017Z,34.80
2022-10-18T14:30:18.666Z,36.10
2022-10-18T14:32:49.586Z,31.65
2022-10-18T14:35:32.713Z,32.53
2022-10-18T14:38:02.409Z,34.40
2022-10-18T14:40:40.859Z,31.52
2022-10-18T14:43:14.784Z,34.33
2022-10-18T14:45:43.351Z,34.13
2022-10-18T14:48:21.088Z,28.63
2022-10-18T14:50:59.385Z,31.10
2022-10-18T14:53:34.571Z,28.63
2022-10-18T14:56:07.364Z,35.85
2022-10-18T14:58:37.852Z,29.95
2022-10-18T15:01:06.020Z,40.45
2022-10-18T15:03:35.747Z,34.25
2022-10-18T15:06:05.841Z,28.05
2022-10-18T15:08:37.838Z,38.63
2022-10-18T15:11:10.496Z,33.28
2022-10-18T15:13:56.921Z,37.15
2022-10-18T15:16:29.219Z,34.00
2022-10-18T15:19:04.489Z,32.92
2022-10-18T15:21:32.922Z,30.75
2022-10-18T15:24:38.003Z,27.00
2022-10-18T15:27:23.960Z,28.27
2022-10-18T15:29:52.581Z,18.90
2022-10-18T15:32:29.858Z,21.63
2022-10-18T15:35:15.893Z,27.10
2022-10-18T15:37:48.532Z,15.15
2022-10-18T15:40:29.271Z,12.70
2022-10-18T15:42:59.674Z,11.35
2022-10-18T15:45:34.788Z,12.20
2022-10-18T15:48:12.957Z,9.27
2022-10-18T15:50:43.696Z,11.75
2022-10-18T15:53:37.194Z,11.32
2022-10-18T15:56:37.883Z,12.25
2022-10-18T15:59:21.028Z,11.90
2022-10-18T16:01:49.003Z,9.27
2022-10-18T16:04:25.755Z,10.27
2022-10-18T16:06:55.523Z,9.98
2022-10-18T16:09:25.372Z,7.97
2022-10-18T16:11:57.051Z,10.23
2022-10-18T16:14:26.529Z,13.27
2022-10-18T16:17:00.641Z,9.70
2022-10-18T16:19:29.047Z,12.45
2022-10-18T16:21:56.849Z,12.35
2022-10-18T16:24:24.635Z,11.65
2022-10-18T16:26:53.156Z,14.05
2022-10-18T16:29:28.757Z,16.35
2022-10-18T16:31:58.260Z,19.65
2022-10-18T16:34:27.380Z,15.02
2022-10-18T16:36:55.698Z,18.30
2022-10-18T16:39:24.080Z,17.85
2022-10-18T16:41:51.759Z,18.08
2022-10-18T16:44:19.656Z,21.75
2022-10-18T16:46:51.086Z,22.90
2022-10-18T16:49:26.023Z,16.70
2022-10-18T16:51:55.291Z,18.45
2022-10-18T16:54:23.660Z,18.60
2022-10-18T16:56:51.344Z,15.07
2022-10-18T16:59:29.107Z,14.88
2022-10-18T17:01:57.235Z,16.00
2022-10-18T17:04:25.121Z,19.77
2022-10-18T17:06:54.633Z,17.73
2022-10-18T17:09:22.443Z,17.30
2022-10-18T17:11:50.486Z,20.13
2022-10-18T17:14:18.212Z,25.27
2022-10-18T17:16:48.775Z,25.88
2022-10-18T17:19:20.778Z,24.58
2022-10-18T17:21:48.279Z,28.58
2022-10-18T17:24:16.065Z,32.08
2022-10-18T17:26:43.898Z,31.52
2022-10-18T17:29:11.730Z,32.30
2022-10-18T17:31:39.435Z,31.08
2022-10-18T17:34:07.535Z,27.48
2022-10-18T17:36:35.132Z,28.48
2022-10-18T17:39:03.901Z,23.75
2022-10-18T17:41:31.619Z,26.50
2022-10-18T17:43:59.412Z,23.10
2022-10-18T17:46:27.407Z,25.52
2022-10-18T17:48:55.177Z,20.90
2022-10-18T17:51:23.001Z,21.67
2022-10-18T17:53:50.879Z,23.42
2022-10-18T17:56:18.580Z,19.88
2022-10-18T17:58:50.351Z,19.52
2022-10-18T18:01:21.411Z,17.58
2022-10-18T18:03:49.530Z,17.77
2022-10-18T18:06:22.574Z,19.75
2022-10-18T18:08:50.853Z,15.35
2022-10-18T18:11:18.740Z,14.82
2022-10-18T18:13:46.601Z,14.43
2022-10-18T18:16:22.723Z,13.63
2022-10-18T18:18:53.454Z,18.65
2022-10-18T18:21:22.143Z,14.27
2022-10-18T18:23:51.084Z,16.92
2022-10-18T18:26:20.078Z,12.30
2022-10-18T18:28:48.750Z,14.43
2022-10-18T18:31:25.563Z,12.50
2022-10-18T18:33:55.559Z,14.30
2022-10-18T18:36:25.050Z,13.90
2022-10-18T18:38:56.999Z,14.15
2022-10-18T18:41:27.294Z,15.30
2022-10-18T18:43:56.823Z,13.55
2022-10-18T18:46:26.801Z,13.57
2022-10-18T18:48:56.378Z,14.13
2022-10-18T18:51:26.662Z,13.50
2022-10-18T18:53:54.680Z,12.77
2022-10-18T18:56:25.478Z,14.80
2022-10-18T18:58:54.411Z,15.35
2022-10-18T19:01:25.379Z,15.77
2022-10-18T19:03:55.981Z,17.08
2022-10-18T19:06:24.856Z,15.70
2022-10-18T19:08:54.584Z,16.25
2022-10-18T19:11:23.002Z,17.85
2022-10-18T19:13:50.836Z,18.80
2022-10-18T19:16:18.490Z,19.05
2022-10-18T19:18:56.064Z,18.73
2022-10-18T19:21:25.899Z,15.25
2022-10-18T19:23:56.108Z,19.45
2022-10-18T19:26:34.047Z,16.50
2022-10-18T19:29:13.421Z,21.48
2022-10-18T19:31:41.842Z,18.55
2022-10-18T19:34:11.684Z,19.38
2022-10-18T19:36:41.267Z,17.83
2022-10-18T19:39:29.513Z,21.75
2022-10-18T19:42:00.180Z,21.83
2022-10-18T19:44:31.085Z,21.55
2022-10-18T19:46:59.486Z,22.35
2022-10-18T19:49:28.695Z,25.08
2022-10-18T19:51:57.301Z,30.98
2022-10-18T19:54:26.831Z,25.27
2022-10-18T19:56:54.426Z,26.52
2022-10-18T19:59:22.881Z,24.75
2022-10-18T20:01:50.712Z,24.23
2022-10-18T20:04:18.640Z,23.20
2022-10-18T20:06:46.694Z,21.42
2022-10-18T20:09:19.330Z,21.08
2022-10-18T20:14:16.457Z,16.50
2022-10-18T20:16:44.053Z,16.90
2022-10-18T20:19:12.071Z,21.60
2022-10-18T20:21:39.998Z,22.05
2022-10-18T20:24:09.502Z,17.20
2022-10-18T20:26:37.385Z,19.52
2022-10-18T20:29:05.859Z,22.67
2022-10-18T20:31:37.162Z,19.35
2022-10-18T20:34:07.904Z,22.17
2022-10-18T20:36:36.187Z,24.10
2022-10-18T20:39:04.905Z,22.05
2022-10-18T20:41:36.406Z,21.10
2022-10-18T20:44:12.127Z,20.27
2022-10-18T20:46:40.451Z,19.67
2022-10-18T20:49:10.917Z,22.17
2022-10-18T20:51:38.557Z,19.20
2022-10-18T20:54:07.947Z,21.10
2022-10-18T20:56:38.095Z,21.83
2022-10-18T20:59:09.483Z,22.13
2022-10-18T21:01:38.961Z,19.80
2022-10-18T21:04:09.287Z,20.13
2022-10-18T21:06:42.829Z,20.60
2022-10-18T21:09:18.874Z,20.83
2022-10-18T21:11:49.489Z,21.60
2022-10-18T21:14:19.778Z,20.83
2022-10-18T21:16:48.563Z,21.92
2022-10-18T21:19:24.259Z,23.42
2022-10-18T21:21:54.939Z,22.02
2022-10-18T21:24:24.272Z,25.55
2022-10-18T21:26:52.571Z,20.58
2022-10-18T21:29:22.636Z,19.60
2022-10-18T21:31:59.333Z,17.70
2022-10-18T21:34:27.495Z,18.27
2022-10-18T21:36:55.092Z,18.40
2022-10-18T21:41:57.043Z,21.83
2022-10-18T21:44:25.010Z,21.27
2022-10-18T21:46:52.705Z,21.60
2022-10-18T21:49:23.356Z,26.75
2022-10-18T21:51:51.094Z,30.08
2022-10-18T21:54:18.942Z,29.35
2022-10-18T21:56:46.631Z,29.13
2022-10-18T21:59:14.762Z,30.52
2022-10-18T22:01:44.589Z,30.05
2022-10-18T22:04:24.656Z,28.25
2022-10-18T22:06:52.453Z,31.83
2022-10-18T22:09:21.234Z,30.85
2022-10-18T22:11:51.588Z,32.00
2022-10-18T22:14:19.656Z,31.48
2022-10-18T22:16:47.269Z,32.30
2022-10-18T22:19:15.202Z,35.72
2022-10-18T22:21:43.046Z,32.30
2022-10-18T22:24:10.976Z,36.45
2022-10-18T22:26:42.300Z,33.40
2022-10-18T22:29:17.406Z,39.70
2022-10-18T22:31:50.660Z,36.80
2022-10-18T22:34:21.832Z,38.15
2022-10-18T22:36:50.200Z,34.22
2022-10-18T22:39:18.215Z,36.30
2022-10-18T22:41:46.609Z,36.80
2022-10-18T22:44:15.458Z,34.97
2022-10-18T22:46:43.247Z,38.80
2022-10-18T22:49:12.108Z,40.95
2022-10-18T22:51:40.389Z,37.72
2022-10-18T22:54:08.489Z,37.08
2022-10-18T22:56:36.089Z,39.17
2022-10-18T22:59:03.943Z,43.05
2022-10-18T23:01:31.499Z,41.42
2022-10-18T23:04:01.132Z,38.42
2022-10-18T23:06:31.741Z,39.55
2022-10-18T23:09:01.764Z,40.42
2022-10-18T23:11:29.637Z,38.40
2022-10-18T23:13:57.506Z,37.67
2022-10-18T23:16:25.367Z,35.75
2022-10-18T23:18:57.865Z,37.13
2022-10-18T23:21:28.084Z,40.10
2022-10-18T23:23:56.764Z,39.33
2022-10-18T23:26:27.353Z,37.97
2022-10-18T23:28:55.988Z,43.80
2022-10-18T23:31:31.127Z,47.70
2022-10-18T23:34:01.940Z,41.03
2022-10-18T23:36:30.243Z,43.70
2022-10-18T23:38:58.569Z,40.55
2022-10-18T23:41:26.636Z,41.25
2022-10-18T23:43:54.827Z,39.10
2022-10-18T23:46:22.898Z,41.58
2022-10-18T23:48:51.158Z,42.65
2022-10-18T23:51:18.847Z,44.47
2022-10-18T23:53:46.962Z,37.97
2022-10-18T23:56:16.441Z,41.03
2022-10-18T23:58:44.867Z,39.20
